Susuman, Russia
Current Conditions -  °F | °C
As of 8:00 AM on Sunday 26 Oct 2014 (Local Time) from UHMM Reporting Station
Overcast Overcast  
Wind Chill: -6°   Ceiling: 20000
Heat Index: -6°   Visibility: 6mi
Dew Point: -9°   Wind: 0mph
Humidity: 84%   Direction: NA
Pressure: 29.88"   Gusts: NA
Location:  62.78°N, 148.17°E
Report Text: UHMM 252100Z 00000MPS 9999 SCT100 OVC200 M21/M23 Q1012 RMKQFE744
Loading
Personal Weather Stations






























Interactive Weather Map
Tropical Storm Tracking
New forecast layout! Learn more

10-Day Weather Forecast

Advertisements
Track Severe Weather on mobile